Kochi, Japan

10:50 AM JST on March 31, 2017 (GMT +0900)
Millbridge Court | | Change Station

Elev 0 ft 33.47 °N, 133.35 °E | Updated 13 minutes ago

Rain
Rain
53.4 °F
Feels Like 53.4 °F
N
2.5
Wind Variable Wind from WNW
Gusts 6.2 mph

Today
High -- | Low -- °F
--% Chance of Precip.
Yesterday
High -- | Low -- °F
Precip. -- in
Pressure 29.98 in
Visibility 3.1 miles
Clouds Few 1500 ft
Scattered Clouds 2500 ft
Mostly Cloudy 5000 ft
Dew Point 51 °F
Humidity 91%
Rainfall 0.31 in
Snow Depth Not available.
5:55 AM 6:25 PM
Waxing Crescent, 12% visible
SPECI RJOM 310137Z 07011KT 040V110 5000 RA BR FEW015 SCT025 BKN050 08/06 Q1015 RMK 1CU015 3CU025 7SC050 A2999
Pressure 29.98 in
Visibility 3.1 miles
Clouds Few 1500 ft
Scattered Clouds 2500 ft
Mostly Cloudy 5000 ft
Dew Point 51 °F
Humidity 91%
Rainfall 0.31 in
Snow Depth Not available.
5:55 AM 6:25 PM
Waxing Crescent, 12% visible
SPECI RJOM 310137Z 07011KT 040V110 5000 RA BR FEW015 SCT025 BKN050 08/06 Q1015 RMK 1CU015 3CU025 7SC050 A2999

Get Severe Weather Alerts

Thanks for signing up!

Be on the lookout for a verification email in your inbox.

You'll start receiving the daily forecast at 8 AM.

×

10-Day Weather Forecast

No radar image for this location.
×

Almanac

Astronomy

Mar. 31, 2017 Rise Set
Actual Time
Civil Twilight
Nautical Twilight
Astronomical Twilight
Moon
Length of Visible Light
Length of Day
Tomorrow will be .
, % of the Moon is Illuminated

Today's Extremes

Country Highs Country Lows

Community

WunderPhotos

Upload Photos

1,962,540 photos uploaded!

WunderBlog® & News

Nearby

Air Quality

  Air Quality AQ Index Pollutant
Not available.

Snow Depth

Station Depth Elevation

Earthquake Activity

City Distance Mag. Time & Date
Minimum magnitude displayed is 2.5.

Earthquake Activity

City Distance Mag. Time & Date
Minimum magnitude displayed is 2.5.

Coastal Water Temperatures

Place Temperature

Stations

Nearby Weather Stations

Station Location Temp. Windchill Dew Point Humidity Wind Precip. Elev Updated Type